Buoy 16555

sailwx.info

Track history (hours):
 
Tides and Currents Weather Stations Pressure Air Temp Water Temp Dewpoint Dewpoint Depression Visibility Wind Speed Wind Dir Waves Ship Positions

Drifting buoy 16555

Last reported at 2017-May-01 01:00 UTC. Time now 2017-May-01 02:17 UTC.
Position S 28°44' E 092°44'.

Barometer 1021.6 mb
Water temperature 21.9 ° C

Date/timePositionNaut miles runAvg speedWind from/ knotsBaromVisibWave heightAir tempDewpointWater temp
2017-May-01 01:00S 28°44' E 092°44'0 0.0 1021.6 21.9
2017-May-01 00:00S 28°44' E 092°44'1 0.8 1021.1 21.9
2017-Apr-30 23:00S 28°43' E 092°43'1 0.3 1020.9 21.9
2017-Apr-30 20:00S 28°43' E 092°44'3 0.7 1021.9 22.0
2017-Apr-30 16:00S 28°40' E 092°42'1 0.5 1023.5 22.0
2017-Apr-30 15:00S 28°40' E 092°41'1 0.7 1023.4 22.0
2017-Apr-30 13:00S 28°39' E 092°41'0 0.0 1023.6 22.0
2017-Apr-30 12:00S 28°39' E 092°41'1 0.5 1023.0 22.1
2017-Apr-30 11:00S 28°39' E 092°40'1 0.8 1022.7 22.1
2017-Apr-30 10:00S 28°38' E 092°41'1 1.1 1022.5 22.1
2017-Apr-30 09:00S 28°38' E 092°40'3 0.6 1022.4 22.2
2017-Apr-30 04:00S 28°37' E 092°37'2 0.6 1025.1 22.0
2017-Apr-30 01:00S 28°36' E 092°35'1 0.6 1024.6 22.0
2017-Apr-30 00:00S 28°35' E 092°35'1 0.6 1024.3 22.0
2017-Apr-29 22:00S 28°35' E 092°34'1 1.3 1024.3 22.0
2017-Apr-29 21:00S 28°34' E 092°33'0 0.0 1024.6 22.0
2017-Apr-29 20:00S 28°34' E 092°33'2 0.5 1025.0 22.0
2017-Apr-29 16:00S 28°32' E 092°31'0 0.0 1025.8 22.1
2017-Apr-29 15:00S 28°32' E 092°31'2 1.6 1025.7 22.1
2017-Apr-29 14:00S 28°32' E 092°29'0 0.0 1025.4 22.1
2017-Apr-29 13:00S 28°32' E 092°29'1 0.5 1025.3 22.1
2017-Apr-29 12:00S 28°32' E 092°30'3 1.4 1024.7 22.2
2017-Apr-29 10:00S 28°32' E 092°27'0 0.0 1024.3 22.2
2017-Apr-29 09:00S 28°32' E 092°27'3 3.4 1024.2 22.2
2017-Apr-29 08:00S 28°31' E 092°23'1 0.1 1024.3 22.2
2017-Apr-29 03:00S 28°30' E 092°23'1 1.2 1025.7 22.1
2017-Apr-29 02:00S 28°29' E 092°22'1 1.2 1025.3 22.1
2017-Apr-29 01:00S 28°30' E 092°21'1 1.2 1024.7 22.1
2017-Apr-29 00:00S 28°29' E 092°21'0 0.0 1024.6 22.1
2017-Apr-28 23:00S 28°29' E 092°21'2 1.6 1024.4 22.1
2017-Apr-28 22:00S 28°29' E 092°19'0 0.0 1024.4 22.1
2017-Apr-28 21:00S 28°29' E 092°19'0 0.0 1024.6 22.1
2017-Apr-28 20:00S 28°29' E 092°19'2 0.7 1025.2 22.1
2017-Apr-28 17:00S 28°28' E 092°17'1 0.3 1025.7 22.1
2017-Apr-28 15:00S 28°28' E 092°16'3 1.1 1026.2 22.2
2017-Apr-28 12:00S 28°28' E 092°13'1 0.8 1025.0 22.2
2017-Apr-28 11:00S 28°29' E 092°12'1 0.5 1024.6 22.2
2017-Apr-28 09:00S 28°29' E 092°11'7 1.2 1024.6 22.2
2017-Apr-28 03:00S 28°28' E 092°02'1 0.6 1026.6 22.1
2017-Apr-28 01:00S 28°27' E 092°01'3 2.7 1025.6 22.1
2017-Apr-28 00:00S 28°26' E 091°58'0 0.0 1025.1 22.1
2017-Apr-27 23:00S 28°26' E 091°58'2 0.8 1025.0 22.1
2017-Apr-27 21:00S 28°26' E 091°56'6 1.9 1025.2 22.1
2017-Apr-27 18:00S 28°28' E 091°50'1 0.5 1026.3 22.1
2017-Apr-27 16:00S 28°28' E 091°49'3 1.4 1026.8 22.1
2017-Apr-27 14:00S 28°29' E 091°46'0 0.0 1027.0 22.2
2017-Apr-27 13:00S 28°29' E 091°46'2 2.4 1026.5 22.2
2017-Apr-27 12:00S 28°31' E 091°44'4 3.6 1026.0 22.2
2017-Apr-27 11:00S 28°32' E 091°40'0 0.0 1025.6 22.2
2017-Apr-27 09:00S 28°32' E 091°40'8 1.5 1025.5 22.2
2017-Apr-27 04:00S 28°37' E 091°34'0 0.0 1027.2 22.1
2017-Apr-27 03:00S 28°37' E 091°34'3 3.2 1026.8 22.1
2017-Apr-27 02:00S 28°40' E 091°31'0 0.0 1026.5 22.1
2017-Apr-27 00:00S 28°40' E 091°31'4 1.8 1025.4 22.1
2017-Apr-26 22:00S 28°42' E 091°28'1 0.4 1025.2 22.1
2017-Apr-26 19:00S 28°43' E 091°28'4 3.8 1026.1 22.2
2017-Apr-26 18:00S 28°47' E 091°26'1 0.6 1026.3 22.2
2017-Apr-26 16:00S 28°48' E 091°26'2 1.8 1026.9 22.2
2017-Apr-26 15:00S 28°50' E 091°26'2 2.5 1027.0 22.2
2017-Apr-26 14:00S 28°52' E 091°26'0 0.0 1026.9 22.2
2017-Apr-26 13:00S 28°52' E 091°26'0 0.0 1026.5 22.2
2017-Apr-26 12:00S 28°52' E 091°26'3 1.5 1026.2 22.2
2017-Apr-26 10:00S 28°55' E 091°26'3 2.6 1025.1 22.2
2017-Apr-26 09:00S 28°58' E 091°25'2 1.2 1025.1 22.2
2017-Apr-26 07:00S 29°00' E 091°25'1 0.2 1025.2 22.1
2017-Apr-26 04:00S 29°01' E 091°25'0 0.0 1027.0 22.0
2017-Apr-26 03:00S 29°01' E 091°25'2 1.8 1027.0 22.0
2017-Apr-26 02:00S 29°02' E 091°25'1 0.5 1026.8 22.0
2017-Apr-26 01:00S 29°02' E 091°26'1 1.3 1026.7 22.0
2017-Apr-26 00:00S 29°04' E 091°25'0 0.0 1026.2 22.0
2017-Apr-25 23:00S 29°04' E 091°25'2 0.6 1026.2 22.0
2017-Apr-25 19:00S 29°06' E 091°25'4 0.9 1026.7 21.8
2017-Apr-25 15:00S 29°10' E 091°25'0 0.0 1028.0 21.6
2017-Apr-25 13:00S 29°10' E 091°25'0 0.0 1027.5 21.7
2017-Apr-25 12:00S 29°10' E 091°25'2 2.1 1027.2 21.7
2017-Apr-25 11:00S 29°11' E 091°26'3 1.1 1026.7 21.8
2017-Apr-25 08:00S 29°14' E 091°24'1 0.3 1027.0 21.9
2017-Apr-25 03:00S 29°15' E 091°25'1 0.7 1028.6 21.2
2017-Apr-25 01:00S 29°16' E 091°24'0 0.0 1027.9 21.2
2017-Apr-25 00:00S 29°16' E 091°24'1 0.6 1027.4 21.3
2017-Apr-24 23:00S 29°17' E 091°24'1 0.8 1027.0 21.3
2017-Apr-24 22:00S 29°17' E 091°23'1 0.5 1026.6 21.4
2017-Apr-24 21:00S 29°17' E 091°24'2 0.6 1026.6 21.4
2017-Apr-24 18:00S 29°19' E 091°23'0 0.0 1027.5 21.4
2017-Apr-24 16:00S 29°19' E 091°23'1 0.6 1027.6 21.5
2017-Apr-24 15:00S 29°20' E 091°23'1 0.8 1027.6 21.6
2017-Apr-24 14:00S 29°20' E 091°23'0 0.0 1027.4 21.6
2017-Apr-24 13:00S 29°20' E 091°23'0 0.0 1027.1 21.7
2017-Apr-24 12:00S 29°20' E 091°23'1 0.6 1026.5 21.8
2017-Apr-24 11:00S 29°21' E 091°23'0 0.0 1026.4 21.8
2017-Apr-24 10:00S 29°21' E 091°23'1 0.8 1026.0 21.9
2017-Apr-24 09:00S 29°22' E 091°22'0 0.0 1026.0 21.9
2017-Apr-24 08:00S 29°22' E 091°22'2 0.4 1026.0 21.7
2017-Apr-24 03:00S 29°23' E 091°20'1 0.8 1027.3 21.7
2017-Apr-24 02:00S 29°23' E 091°20'1 0.8 1027.4 21.8
2017-Apr-24 01:00S 29°23' E 091°19'0 0.0 1026.8 21.8
2017-Apr-24 00:00S 29°23' E 091°19'1 0.7 1026.3 21.8
2017-Apr-23 22:00S 29°24' E 091°19'1 0.3 1026.2 21.8
2017-Apr-23 20:00S 29°24' E 091°18'1 0.4 1026.9 21.9
2017-Apr-23 17:00S 29°25' E 091°17'2 0.8 1027.6 22.0
2017-Apr-23 15:00S 29°26' E 091°16'0 0.0 1027.9 22.0
2017-Apr-23 14:00S 29°26' E 091°16'2 0.8 1027.8 22.0
2017-Apr-23 12:00S 29°26' E 091°14'3 1.4 1027.0 22.1
2017-Apr-23 10:00S 29°28' E 091°11'0 0.0 1025.6 22.2
2017-Apr-23 09:00S 29°28' E 091°11'0 0.0 1025.2 22.2
2017-Apr-23 08:00S 29°28' E 091°11'6 1.3 1025.4 22.2
2017-Apr-23 03:00S 29°32' E 091°06'2 0.7 1027.2 21.9
2017-Apr-23 00:00S 29°34' E 091°04'1 0.6 1025.7 21.9
2017-Apr-22 23:00S 29°34' E 091°04'4 2.0 1025.3 21.9
2017-Apr-22 21:00S 29°38' E 091°02'0 0.0 1024.9 21.9
2017-Apr-22 20:00S 29°38' E 091°02'6 1.4 1025.0 21.8
2017-Apr-22 16:00S 29°43' E 090°59'0 0.0 1025.9 21.8
2017-Apr-22 15:00S 29°43' E 090°59'1 1.3 1026.2 21.8
2017-Apr-22 14:00S 29°44' E 090°58'2 1.6 1025.6 21.8
2017-Apr-22 13:00S 29°45' E 090°57'1 0.5 1025.3 21.8
2017-Apr-22 12:00S 29°45' E 090°58'2 1.9 1024.8 21.8
2017-Apr-22 11:00S 29°47' E 090°57'1 1.3 1024.5 21.8
2017-Apr-22 10:00S 29°48' E 090°56'1 1.2 1024.4 21.8
2017-Apr-22 09:00S 29°49' E 090°56'0 0.0 1024.4 21.8
2017-Apr-22 08:00S 29°49' E 090°56'8 2.0 1024.3 21.8
2017-Apr-22 04:00S 29°57' E 090°55'1 0.3 1026.0 21.7
2017-Apr-22 02:00S 29°58' E 090°55'1 0.8 1026.1 21.7
2017-Apr-22 01:00S 29°58' E 090°55'3 2.6 1025.4 21.7
2017-Apr-22 00:00S 30°01' E 090°53'2 2.5 1024.9 21.7
2017-Apr-21 23:00S 30°03' E 090°53'2 1.2 1024.3 21.7
2017-Apr-21 21:00S 30°05' E 090°53'0 0.0 1024.0 21.7
2017-Apr-21 20:00S 30°05' E 090°53'6 1.5 1024.3 21.7
2017-Apr-21 16:00S 30°11' E 090°51'1 1.3 1024.1 21.8
2017-Apr-21 15:00S 30°13' E 090°50'2 1.6 1024.1 21.8
2017-Apr-21 14:00S 30°14' E 090°49'0 0.0 1024.0 21.8
2017-Apr-21 13:00S 30°14' E 090°49'2 2.4 1023.8 21.8
2017-Apr-21 12:00S 30°16' E 090°49'1 0.8 1023.4 21.8
2017-Apr-21 11:00S 30°17' E 090°49'2 1.6 1022.9 21.8
2017-Apr-21 10:00S 30°18' E 090°47'0 0.0 1022.6 21.6
2017-Apr-21 09:00S 30°18' E 090°47'6 1.2 1022.4 21.6
2017-Apr-21 04:00S 30°24' E 090°47'2 2.0 1023.8 21.6
2017-Apr-21 03:00S 30°25' E 090°46'0 0.0 1023.7 21.7
2017-Apr-21 02:00S 30°25' E 090°46'0 0.0 1023.6 21.7
2017-Apr-21 01:00S 30°25' E 090°46'   1022.9 21.8
Track history (hours):
 
Tides and Currents Weather Stations Pressure Air Temp Water Temp Dewpoint Dewpoint Depression Visibility Wind Speed Wind Dir Waves Ship Positions

Drifting buoy 16555

Last reported at 2017-May-01 01:00 UTC. Time now 2017-May-01 02:17 UTC.
Position S 28°44' E 092°44'.

Barometer 1021.6 mb
Water temperature 21.9 ° C

Date/timePositionNaut miles runAvg speedWind from/ knotsBaromVisibWave heightAir tempDewpointWater temp
2017-May-01 01:00S 28°44' E 092°44'0 0.0 1021.6 21.9
2017-May-01 00:00S 28°44' E 092°44'1 0.8 1021.1 21.9
2017-Apr-30 23:00S 28°43' E 092°43'1 0.3 1020.9 21.9
2017-Apr-30 20:00S 28°43' E 092°44'3 0.7 1021.9 22.0
2017-Apr-30 16:00S 28°40' E 092°42'1 0.5 1023.5 22.0
2017-Apr-30 15:00S 28°40' E 092°41'1 0.7 1023.4 22.0
2017-Apr-30 13:00S 28°39' E 092°41'0 0.0 1023.6 22.0
2017-Apr-30 12:00S 28°39' E 092°41'1 0.5 1023.0 22.1
2017-Apr-30 11:00S 28°39' E 092°40'1 0.8 1022.7 22.1
2017-Apr-30 10:00S 28°38' E 092°41'1 1.1 1022.5 22.1
2017-Apr-30 09:00S 28°38' E 092°40'3 0.6 1022.4 22.2
2017-Apr-30 04:00S 28°37' E 092°37'2 0.6 1025.1 22.0
2017-Apr-30 01:00S 28°36' E 092°35'1 0.6 1024.6 22.0
2017-Apr-30 00:00S 28°35' E 092°35'1 0.6 1024.3 22.0
2017-Apr-29 22:00S 28°35' E 092°34'1 1.3 1024.3 22.0
2017-Apr-29 21:00S 28°34' E 092°33'0 0.0 1024.6 22.0
2017-Apr-29 20:00S 28°34' E 092°33'2 0.5 1025.0 22.0
2017-Apr-29 16:00S 28°32' E 092°31'0 0.0 1025.8 22.1
2017-Apr-29 15:00S 28°32' E 092°31'2 1.6 1025.7 22.1
2017-Apr-29 14:00S 28°32' E 092°29'0 0.0 1025.4 22.1
2017-Apr-29 13:00S 28°32' E 092°29'1 0.5 1025.3 22.1
2017-Apr-29 12:00S 28°32' E 092°30'3 1.4 1024.7 22.2
2017-Apr-29 10:00S 28°32' E 092°27'0 0.0 1024.3 22.2
2017-Apr-29 09:00S 28°32' E 092°27'3 3.4 1024.2 22.2
2017-Apr-29 08:00S 28°31' E 092°23'1 0.1 1024.3 22.2
2017-Apr-29 03:00S 28°30' E 092°23'1 1.2 1025.7 22.1
2017-Apr-29 02:00S 28°29' E 092°22'1 1.2 1025.3 22.1
2017-Apr-29 01:00S 28°30' E 092°21'1 1.2 1024.7 22.1
2017-Apr-29 00:00S 28°29' E 092°21'0 0.0 1024.6 22.1
2017-Apr-28 23:00S 28°29' E 092°21'2 1.6 1024.4 22.1
2017-Apr-28 22:00S 28°29' E 092°19'0 0.0 1024.4 22.1
2017-Apr-28 21:00S 28°29' E 092°19'0 0.0 1024.6 22.1
2017-Apr-28 20:00S 28°29' E 092°19'2 0.7 1025.2 22.1
2017-Apr-28 17:00S 28°28' E 092°17'1 0.3 1025.7 22.1
2017-Apr-28 15:00S 28°28' E 092°16'3 1.1 1026.2 22.2
2017-Apr-28 12:00S 28°28' E 092°13'1 0.8 1025.0 22.2
2017-Apr-28 11:00S 28°29' E 092°12'1 0.5 1024.6 22.2
2017-Apr-28 09:00S 28°29' E 092°11'7 1.2 1024.6 22.2
2017-Apr-28 03:00S 28°28' E 092°02'1 0.6 1026.6 22.1
2017-Apr-28 01:00S 28°27' E 092°01'3 2.7 1025.6 22.1
2017-Apr-28 00:00S 28°26' E 091°58'0 0.0 1025.1 22.1
2017-Apr-27 23:00S 28°26' E 091°58'2 0.8 1025.0 22.1
2017-Apr-27 21:00S 28°26' E 091°56'6 1.9 1025.2 22.1
2017-Apr-27 18:00S 28°28' E 091°50'1 0.5 1026.3 22.1
2017-Apr-27 16:00S 28°28' E 091°49'3 1.4 1026.8 22.1
2017-Apr-27 14:00S 28°29' E 091°46'0 0.0 1027.0 22.2
2017-Apr-27 13:00S 28°29' E 091°46'2 2.4 1026.5 22.2
2017-Apr-27 12:00S 28°31' E 091°44'4 3.6 1026.0 22.2
2017-Apr-27 11:00S 28°32' E 091°40'0 0.0 1025.6 22.2
2017-Apr-27 09:00S 28°32' E 091°40'8 1.5 1025.5 22.2
2017-Apr-27 04:00S 28°37' E 091°34'0 0.0 1027.2 22.1
2017-Apr-27 03:00S 28°37' E 091°34'3 3.2 1026.8 22.1
2017-Apr-27 02:00S 28°40' E 091°31'0 0.0 1026.5 22.1
2017-Apr-27 00:00S 28°40' E 091°31'4 1.8 1025.4 22.1
2017-Apr-26 22:00S 28°42' E 091°28'1 0.4 1025.2 22.1
2017-Apr-26 19:00S 28°43' E 091°28'4 3.8 1026.1 22.2
2017-Apr-26 18:00S 28°47' E 091°26'1 0.6 1026.3 22.2
2017-Apr-26 16:00S 28°48' E 091°26'2 1.8 1026.9 22.2
2017-Apr-26 15:00S 28°50' E 091°26'2 2.5 1027.0 22.2
2017-Apr-26 14:00S 28°52' E 091°26'0 0.0 1026.9 22.2
2017-Apr-26 13:00S 28°52' E 091°26'0 0.0 1026.5 22.2
2017-Apr-26 12:00S 28°52' E 091°26'3 1.5 1026.2 22.2
2017-Apr-26 10:00S 28°55' E 091°26'3 2.6 1025.1 22.2
2017-Apr-26 09:00S 28°58' E 091°25'2 1.2 1025.1 22.2
2017-Apr-26 07:00S 29°00' E 091°25'1 0.2 1025.2 22.1
2017-Apr-26 04:00S 29°01' E 091°25'0 0.0 1027.0 22.0
2017-Apr-26 03:00S 29°01' E 091°25'2 1.8 1027.0 22.0
2017-Apr-26 02:00S 29°02' E 091°25'1 0.5 1026.8 22.0
2017-Apr-26 01:00S 29°02' E 091°26'1 1.3 1026.7 22.0
2017-Apr-26 00:00S 29°04' E 091°25'0 0.0 1026.2 22.0
2017-Apr-25 23:00S 29°04' E 091°25'2 0.6 1026.2 22.0
2017-Apr-25 19:00S 29°06' E 091°25'4 0.9 1026.7 21.8
2017-Apr-25 15:00S 29°10' E 091°25'0 0.0 1028.0 21.6
2017-Apr-25 13:00S 29°10' E 091°25'0 0.0 1027.5 21.7
2017-Apr-25 12:00S 29°10' E 091°25'2 2.1 1027.2 21.7
2017-Apr-25 11:00S 29°11' E 091°26'3 1.1 1026.7 21.8
2017-Apr-25 08:00S 29°14' E 091°24'1 0.3 1027.0 21.9
2017-Apr-25 03:00S 29°15' E 091°25'1 0.7 1028.6 21.2
2017-Apr-25 01:00S 29°16' E 091°24'0 0.0 1027.9 21.2
2017-Apr-25 00:00S 29°16' E 091°24'1 0.6 1027.4 21.3
2017-Apr-24 23:00S 29°17' E 091°24'1 0.8 1027.0 21.3
2017-Apr-24 22:00S 29°17' E 091°23'1 0.5 1026.6 21.4
2017-Apr-24 21:00S 29°17' E 091°24'2 0.6 1026.6 21.4
2017-Apr-24 18:00S 29°19' E 091°23'0 0.0 1027.5 21.4
2017-Apr-24 16:00S 29°19' E 091°23'1 0.6 1027.6 21.5
2017-Apr-24 15:00S 29°20' E 091°23'1 0.8 1027.6 21.6
2017-Apr-24 14:00S 29°20' E 091°23'0 0.0 1027.4 21.6
2017-Apr-24 13:00S 29°20' E 091°23'0 0.0 1027.1 21.7
2017-Apr-24 12:00S 29°20' E 091°23'1 0.6 1026.5 21.8
2017-Apr-24 11:00S 29°21' E 091°23'0 0.0 1026.4 21.8
2017-Apr-24 10:00S 29°21' E 091°23'1 0.8 1026.0 21.9
2017-Apr-24 09:00S 29°22' E 091°22'0 0.0 1026.0 21.9
2017-Apr-24 08:00S 29°22' E 091°22'2 0.4 1026.0 21.7
2017-Apr-24 03:00S 29°23' E 091°20'1 0.8 1027.3 21.7
2017-Apr-24 02:00S 29°23' E 091°20'1 0.8 1027.4 21.8
2017-Apr-24 01:00S 29°23' E 091°19'0 0.0 1026.8 21.8
2017-Apr-24 00:00S 29°23' E 091°19'1 0.7 1026.3 21.8
2017-Apr-23 22:00S 29°24' E 091°19'1 0.3 1026.2 21.8
2017-Apr-23 20:00S 29°24' E 091°18'1 0.4 1026.9 21.9
2017-Apr-23 17:00S 29°25' E 091°17'2 0.8 1027.6 22.0
2017-Apr-23 15:00S 29°26' E 091°16'0 0.0 1027.9 22.0
2017-Apr-23 14:00S 29°26' E 091°16'2 0.8 1027.8 22.0
2017-Apr-23 12:00S 29°26' E 091°14'3 1.4 1027.0 22.1
2017-Apr-23 10:00S 29°28' E 091°11'0 0.0 1025.6 22.2
2017-Apr-23 09:00S 29°28' E 091°11'0 0.0 1025.2 22.2
2017-Apr-23 08:00S 29°28' E 091°11'6 1.3 1025.4 22.2
2017-Apr-23 03:00S 29°32' E 091°06'2 0.7 1027.2 21.9
2017-Apr-23 00:00S 29°34' E 091°04'1 0.6 1025.7 21.9
2017-Apr-22 23:00S 29°34' E 091°04'4 2.0 1025.3 21.9
2017-Apr-22 21:00S 29°38' E 091°02'0 0.0 1024.9 21.9
2017-Apr-22 20:00S 29°38' E 091°02'6 1.4 1025.0 21.8
2017-Apr-22 16:00S 29°43' E 090°59'0 0.0 1025.9 21.8
2017-Apr-22 15:00S 29°43' E 090°59'1 1.3 1026.2 21.8
2017-Apr-22 14:00S 29°44' E 090°58'2 1.6 1025.6 21.8
2017-Apr-22 13:00S 29°45' E 090°57'1 0.5 1025.3 21.8
2017-Apr-22 12:00S 29°45' E 090°58'2 1.9 1024.8 21.8
2017-Apr-22 11:00S 29°47' E 090°57'1 1.3 1024.5 21.8
2017-Apr-22 10:00S 29°48' E 090°56'1 1.2 1024.4 21.8
2017-Apr-22 09:00S 29°49' E 090°56'0 0.0 1024.4 21.8
2017-Apr-22 08:00S 29°49' E 090°56'8 2.0 1024.3 21.8
2017-Apr-22 04:00S 29°57' E 090°55'1 0.3 1026.0 21.7
2017-Apr-22 02:00S 29°58' E 090°55'1 0.8 1026.1 21.7
2017-Apr-22 01:00S 29°58' E 090°55'3 2.6 1025.4 21.7
2017-Apr-22 00:00S 30°01' E 090°53'2 2.5 1024.9 21.7
2017-Apr-21 23:00S 30°03' E 090°53'2 1.2 1024.3 21.7
2017-Apr-21 21:00S 30°05' E 090°53'0 0.0 1024.0 21.7
2017-Apr-21 20:00S 30°05' E 090°53'6 1.5 1024.3 21.7
2017-Apr-21 16:00S 30°11' E 090°51'1 1.3 1024.1 21.8
2017-Apr-21 15:00S 30°13' E 090°50'2 1.6 1024.1 21.8
2017-Apr-21 14:00S 30°14' E 090°49'0 0.0 1024.0 21.8
2017-Apr-21 13:00S 30°14' E 090°49'2 2.4 1023.8 21.8
2017-Apr-21 12:00S 30°16' E 090°49'1 0.8 1023.4 21.8
2017-Apr-21 11:00S 30°17' E 090°49'2 1.6 1022.9 21.8
2017-Apr-21 10:00S 30°18' E 090°47'0 0.0 1022.6 21.6
2017-Apr-21 09:00S 30°18' E 090°47'6 1.2 1022.4 21.6
2017-Apr-21 04:00S 30°24' E 090°47'2 2.0 1023.8 21.6
2017-Apr-21 03:00S 30°25' E 090°46'0 0.0 1023.7 21.7
2017-Apr-21 02:00S 30°25' E 090°46'0 0.0 1023.6 21.7
2017-Apr-21 01:00S 30°25' E 090°46'   1022.9 21.8

Dump ship's entire track history